Time;durP1;ratioP1;P1;durP2;ratioP2;P2;SDS_P1;SDS_P2;PMS_P1;PMS_P2;Temp;Humidity;BMP_temperature;BMP_pressure;BME280_temperature;BME280_humidity;BME280_pressure;Samples;Min_cycle;Max_cycle;Signal;HPM_P1;HPM_P2
2024/02/02 00:01:43;;;;;;;3.08;2.22;;;2.70;99.90;;;;;;5050621;28;20210;-76
2024/02/02 00:04:10;;;;;;;2.85;2.33;;;2.70;99.90;;;;;;5049959;28;20213;-76
2024/02/02 00:06:37;;;;;;;2.63;1.90;;;2.70;99.90;;;;;;5040041;28;20675;-76
2024/02/02 00:09:05;;;;;;;1.58;1.40;;;2.70;99.90;;;;;;5040849;28;20222;-76
2024/02/02 00:11:34;;;;;;;2.07;1.33;;;2.70;99.90;;;;;;5040901;28;20209;-75
2024/02/02 00:14:00;;;;;;;1.67;1.55;;;2.80;99.90;;;;;;5040639;28;20256;-76
2024/02/02 00:16:27;;;;;;;5.28;2.30;;;2.80;99.90;;;;;;5041475;28;20201;-75
2024/02/02 00:18:54;;;;;;;1.63;1.52;;;2.80;99.90;;;;;;5039852;28;20218;-75
2024/02/02 00:21:20;;;;;;;3.85;2.30;;;2.80;99.90;;;;;;5044761;28;20224;-77
2024/02/02 00:23:47;;;;;;;1.85;1.40;;;2.80;99.90;;;;;;5048183;28;20560;-76
2024/02/02 00:26:14;;;;;;;1.90;1.40;;;2.80;99.90;;;;;;5042960;28;20213;-76
2024/02/02 00:28:42;;;;;;;2.90;1.65;;;2.80;99.90;;;;;;5040038;28;20249;-76
2024/02/02 00:31:08;;;;;;;7.00;1.33;;;2.70;99.90;;;;;;5042284;28;20201;-76
2024/02/02 00:33:35;;;;;;;1.27;1.17;;;2.70;99.90;;;;;;5040987;28;20224;-76
2024/02/02 00:36:04;;;;;;;1.77;1.50;;;2.70;99.90;;;;;;5040736;28;20217;-76
2024/02/02 00:38:30;;;;;;;2.45;1.50;;;2.70;99.90;;;;;;5041977;28;20234;-76
2024/02/02 00:40:57;;;;;;;2.70;1.95;;;2.70;99.90;;;;;;5040599;28;20213;-77
2024/02/02 00:43:24;;;;;;;4.40;1.40;;;2.70;99.90;;;;;;5044765;28;20193;-77
2024/02/02 00:45:52;;;;;;;1.77;1.48;;;2.60;99.90;;;;;;5040305;28;20296;-77
2024/02/02 00:48:19;;;;;;;1.65;1.55;;;2.60;99.90;;;;;;5043657;28;20300;-77
2024/02/02 00:50:45;;;;;;;1.30;1.20;;;2.60;99.90;;;;;;5040833;28;20416;-76
2024/02/02 00:53:12;;;;;;;2.75;1.60;;;2.60;99.90;;;;;;5045062;28;20218;-77
2024/02/02 00:55:39;;;;;;;3.78;2.10;;;2.60;99.90;;;;;;5046418;28;20216;-77
2024/02/02 00:58:06;;;;;;;1.95;1.27;;;2.60;99.90;;;;;;5042148;28;20225;-77
2024/02/02 01:00:32;;;;;;;3.80;1.88;;;2.60;99.90;;;;;;5054157;28;20224;-77
2024/02/02 01:03:00;;;;;;;2.10;1.90;;;2.70;99.90;;;;;;5043233;28;20228;-76
2024/02/02 01:05:28;;;;;;;2.08;1.73;;;2.70;99.90;;;;;;5045175;28;20209;-76
2024/02/02 01:07:56;;;;;;;2.65;1.50;;;2.70;99.90;;;;;;5043040;28;20225;-76
2024/02/02 01:10:23;;;;;;;5.18;1.70;;;2.70;99.90;;;;;;5045970;28;20231;-77
2024/02/02 01:12:49;;;;;;;2.72;1.90;;;2.70;99.90;;;;;;5051404;28;20232;-76
2024/02/02 01:15:17;;;;;;;1.35;1.17;;;2.70;99.90;;;;;;5048077;28;20311;-76
2024/02/02 01:17:45;;;;;;;1.77;1.67;;;2.70;99.90;;;;;;5041758;28;20261;-76
2024/02/02 01:20:13;;;;;;;4.95;2.00;;;2.70;99.90;;;;;;5047917;28;20736;-77
2024/02/02 01:22:40;;;;;;;6.35;1.80;;;2.70;99.90;;;;;;5041670;28;20212;-77
2024/02/02 01:25:09;;;;;;;3.53;1.75;;;2.70;99.90;;;;;;5041914;28;20206;-77
2024/02/02 01:27:36;;;;;;;1.90;0.95;;;2.60;99.90;;;;;;5042144;28;20296;-77
2024/02/02 01:30:03;;;;;;;1.77;1.67;;;2.60;99.90;;;;;;5042016;28;20202;-75
2024/02/02 01:32:30;;;;;;;1.60;1.50;;;2.60;99.90;;;;;;5043002;28;20244;-76
2024/02/02 01:34:57;;;;;;;1.75;1.40;;;2.60;99.90;;;;;;5041021;28;20216;-76
2024/02/02 01:37:25;;;;;;;1.88;1.65;;;2.50;99.90;;;;;;5048840;28;20235;-77
2024/02/02 01:39:51;;;;;;;1.35;1.25;;;2.50;99.90;;;;;;5056617;28;20231;-76
2024/02/02 01:42:18;;;;;;;1.98;1.58;;;2.40;99.90;;;;;;5043784;28;20303;-76
2024/02/02 01:44:45;;;;;;;4.35;2.30;;;2.40;99.90;;;;;;5041363;28;20585;-76
2024/02/02 01:47:12;;;;;;;1.55;1.25;;;2.30;99.90;;;;;;5042510;28;20202;-76
2024/02/02 01:49:38;;;;;;;2.92;1.52;;;2.30;99.90;;;;;;5042362;28;20228;-76
2024/02/02 01:52:06;;;;;;;2.40;1.50;;;2.30;99.90;;;;;;5041973;28;20209;-77
2024/02/02 01:54:35;;;;;;;2.70;1.80;;;2.30;99.90;;;;;;5043163;28;20216;-77
2024/02/02 01:57:02;;;;;;;1.83;1.73;;;2.30;99.90;;;;;;5041337;28;20573;-77
2024/02/02 01:59:29;;;;;;;1.30;1.20;;;2.30;99.90;;;;;;5043533;28;20818;-77
2024/02/02 02:01:56;;;;;;;2.10;1.80;;;2.20;99.90;;;;;;5040623;28;20205;-77
2024/02/02 02:04:23;;;;;;;2.97;2.60;;;2.20;99.90;;;;;;5044000;28;20200;-77
2024/02/02 02:06:50;;;;;;;3.15;2.20;;;2.20;99.90;;;;;;5040261;28;20205;-77
2024/02/02 02:09:17;;;;;;;5.95;1.83;;;2.30;99.90;;;;;;5043337;28;20231;-77
2024/02/02 02:11:45;;;;;;;1.60;1.48;;;2.30;99.90;;;;;;5041688;28;20213;-77
2024/02/02 02:14:12;;;;;;;1.70;1.50;;;2.30;99.90;;;;;;5042946;28;20219;-77
2024/02/02 02:16:39;;;;;;;4.80;1.80;;;2.30;99.90;;;;;;5042069;28;20205;-76
2024/02/02 02:19:06;;;;;;;2.60;1.88;;;2.30;99.90;;;;;;5042170;28;20245;-77
2024/02/02 02:21:34;;;;;;;1.50;1.40;;;2.30;99.90;;;;;;5043552;28;20209;-77
2024/02/02 02:24:00;;;;;;;2.13;1.73;;;2.30;99.90;;;;;;5041611;28;20641;-77
2024/02/02 02:26:30;;;;;;;1.80;1.60;;;2.20;99.90;;;;;;5044095;28;20208;-77
2024/02/02 02:28:56;;;;;;;4.50;1.60;;;2.30;99.90;;;;;;5040993;28;20227;-76
2024/02/02 02:31:23;;;;;;;3.08;2.30;;;2.30;99.90;;;;;;5044305;28;20208;-77
2024/02/02 02:33:50;;;;;;;3.50;2.75;;;2.40;99.90;;;;;;5041457;28;20230;-77
2024/02/02 02:36:18;;;;;;;2.38;1.83;;;2.40;99.90;;;;;;5043665;28;20826;-76
2024/02/02 02:38:47;;;;;;;2.22;1.88;;;2.40;99.90;;;;;;5042296;28;20662;-76
2024/02/02 02:41:14;;;;;;;6.38;2.00;;;2.30;99.90;;;;;;5043646;28;20209;-76
2024/02/02 02:43:41;;;;;;;3.47;2.20;;;2.30;99.90;;;;;;5043124;28;20204;-76
2024/02/02 02:46:08;;;;;;;2.88;1.90;;;2.30;99.90;;;;;;5042900;28;20204;-76
2024/02/02 02:48:36;;;;;;;2.20;1.60;;;2.30;99.90;;;;;;5043990;28;20236;-77
2024/02/02 02:51:03;;;;;;;4.45;2.00;;;2.30;99.90;;;;;;5042149;28;20559;-77
2024/02/02 02:53:30;;;;;;;6.32;2.03;;;2.30;99.90;;;;;;5044650;28;20606;-77
2024/02/02 02:55:58;;;;;;;1.65;1.55;;;2.30;99.90;;;;;;5041243;28;20201;-77
2024/02/02 02:58:24;;;;;;;2.30;1.60;;;2.40;99.90;;;;;;5044791;28;20783;-76
2024/02/02 03:00:53;;;;;;;2.35;2.15;;;2.40;99.90;;;;;;5041955;28;20213;-77
2024/02/02 03:03:20;;;;;;;2.83;1.85;;;2.40;99.90;;;;;;5039822;28;20199;-75
2024/02/02 03:05:47;;;;;;;4.82;2.08;;;2.40;99.90;;;;;;5042558;28;20209;-75
2024/02/02 03:08:13;;;;;;;2.78;1.48;;;2.40;99.90;;;;;;5043909;28;20629;-76
2024/02/02 03:10:41;;;;;;;2.00;1.80;;;2.50;99.90;;;;;;5043816;28;20564;-76
2024/02/02 03:13:10;;;;;;;2.85;1.70;;;2.50;99.90;;;;;;5043488;28;20279;-76
2024/02/02 03:15:38;;;;;;;4.10;2.15;;;2.50;99.90;;;;;;5044345;28;20210;-77
2024/02/02 03:18:05;;;;;;;2.08;1.65;;;2.60;99.90;;;;;;5042822;28;20260;-76
2024/02/02 03:20:31;;;;;;;1.95;1.52;;;2.60;99.90;;;;;;5048858;28;20208;-76
2024/02/02 03:22:58;;;;;;;4.82;1.83;;;2.60;99.90;;;;;;5045992;28;20198;-76
2024/02/02 03:25:25;;;;;;;3.53;2.35;;;2.60;99.90;;;;;;5048607;28;20212;-76
2024/02/02 03:27:52;;;;;;;5.10;2.08;;;2.70;99.90;;;;;;5046599;28;20228;-77
2024/02/02 03:30:20;;;;;;;2.72;2.40;;;2.80;99.90;;;;;;5048544;28;20257;-76
2024/02/02 03:32:46;;;;;;;3.95;2.35;;;2.80;99.90;;;;;;5047265;28;20220;-76
2024/02/02 03:35:14;;;;;;;2.10;1.77;;;2.80;99.90;;;;;;5047934;28;20216;-77
2024/02/02 03:37:40;;;;;;;2.50;1.80;;;2.90;99.90;;;;;;5048244;28;20776;-76
2024/02/02 03:40:08;;;;;;;4.55;2.55;;;2.90;99.90;;;;;;5047302;28;20229;-77
2024/02/02 03:42:35;;;;;;;3.50;2.20;;;2.90;99.90;;;;;;5049211;28;20213;-77
2024/02/02 03:45:02;;;;;;;2.58;2.20;;;3.00;99.90;;;;;;5046197;28;20202;-76
2024/02/02 03:47:30;;;;;;;6.88;2.47;;;3.00;99.90;;;;;;5049087;28;20890;-76
2024/02/02 03:49:57;;;;;;;2.03;1.90;;;3.10;99.90;;;;;;5046514;28;20201;-76
2024/02/02 03:52:24;;;;;;;2.30;2.10;;;3.10;99.90;;;;;;5049427;28;20212;-75
2024/02/02 03:54:50;;;;;;;3.08;2.80;;;3.10;99.90;;;;;;5047410;28;20605;-77
2024/02/02 03:57:17;;;;;;;1.73;1.63;;;3.20;99.90;;;;;;5048585;28;20209;-77
2024/02/02 03:59:44;;;;;;;3.70;2.28;;;3.20;99.90;;;;;;5048003;28;20233;-77
2024/02/02 04:02:11;;;;;;;5.07;2.28;;;3.20;99.90;;;;;;5058029;28;20201;-76
2024/02/02 04:04:39;;;;;;;2.22;1.58;;;3.20;99.90;;;;;;5049160;28;20241;-76
2024/02/02 04:07:06;;;;;;;1.83;1.60;;;3.20;99.90;;;;;;5046925;28;20213;-76
2024/02/02 04:09:33;;;;;;;2.63;2.42;;;3.20;99.90;;;;;;5049244;28;20236;-76
2024/02/02 04:12:00;;;;;;;7.07;2.13;;;3.20;99.90;;;;;;5046848;28;20202;-76
2024/02/02 04:14:26;;;;;;;3.15;2.70;;;3.20;99.90;;;;;;5049320;28;20236;-76
2024/02/02 04:16:53;;;;;;;5.65;3.05;;;3.20;99.90;;;;;;5048656;28;20198;-76
2024/02/02 04:19:20;;;;;;;2.92;2.50;;;3.20;99.90;;;;;;5046193;28;20244;-77
2024/02/02 04:21:48;;;;;;;2.58;2.00;;;3.20;99.90;;;;;;5048912;28;20201;-77
2024/02/02 04:24:15;;;;;;;3.15;2.20;;;3.20;99.90;;;;;;5052426;28;20197;-76
2024/02/02 04:26:42;;;;;;;1.80;1.65;;;3.20;99.90;;;;;;5048613;28;20216;-78
2024/02/02 04:29:09;;;;;;;3.03;2.72;;;3.30;99.90;;;;;;5051380;28;20229;-77
2024/02/02 04:31:35;;;;;;;2.38;1.80;;;3.30;99.90;;;;;;5047836;28;20264;-76
2024/02/02 04:34:02;;;;;;;3.45;2.30;;;3.30;99.90;;;;;;5049780;28;20217;-77
2024/02/02 04:36:30;;;;;;;3.95;3.17;;;3.30;99.90;;;;;;5044589;28;20210;-77
2024/02/02 04:38:58;;;;;;;3.45;2.33;;;3.30;99.90;;;;;;5047650;28;20317;-76
2024/02/02 04:41:25;;;;;;;3.13;2.55;;;3.20;99.90;;;;;;5052480;28;20222;-75
2024/02/02 04:43:52;;;;;;;2.20;1.90;;;3.20;99.90;;;;;;5047140;28;20201;-75
2024/02/02 04:46:18;;;;;;;2.00;1.70;;;3.30;99.90;;;;;;5048298;28;20197;-76
2024/02/02 04:48:45;;;;;;;2.22;2.00;;;3.30;99.90;;;;;;5043629;28;20598;-75
2024/02/02 04:51:12;;;;;;;2.80;2.60;;;3.30;99.90;;;;;;5047776;28;20206;-76
2024/02/02 04:53:39;;;;;;;2.75;2.55;;;3.30;99.90;;;;;;5051544;28;20213;-77
2024/02/02 04:56:07;;;;;;;7.93;2.92;;;3.30;99.90;;;;;;5050997;28;20210;-76
2024/02/02 04:58:33;;;;;;;3.58;2.45;;;3.30;99.90;;;;;;5050196;28;20225;-76
2024/02/02 05:01:00;;;;;;;4.57;2.85;;;3.30;99.90;;;;;;5048185;28;20693;-76
2024/02/02 05:03:27;;;;;;;2.30;2.10;;;3.30;99.90;;;;;;5050983;28;20212;-76
2024/02/02 05:05:54;;;;;;;3.65;2.67;;;3.30;99.90;;;;;;5047421;28;20201;-76
2024/02/02 05:08:21;;;;;;;2.75;2.35;;;3.30;99.90;;;;;;5045829;28;20220;-75
2024/02/02 05:10:48;;;;;;;2.58;1.98;;;3.30;99.90;;;;;;5044561;28;20210;-75
2024/02/02 05:13:16;;;;;;;5.18;3.00;;;3.30;99.90;;;;;;5050182;28;20255;-74
2024/02/02 05:15:42;;;;;;;4.82;2.38;;;3.30;99.90;;;;;;5061322;28;20223;-75
2024/02/02 05:18:10;;;;;;;2.75;2.55;;;3.40;99.90;;;;;;5047481;28;20222;-74
2024/02/02 05:20:38;;;;;;;4.25;2.92;;;3.30;99.90;;;;;;5052724;28;20198;-75
2024/02/02 05:23:05;;;;;;;4.93;2.40;;;3.30;99.90;;;;;;5055061;28;20208;-73
2024/02/02 05:25:31;;;;;;;2.88;2.30;;;3.40;99.90;;;;;;5055825;28;20585;-75
2024/02/02 05:27:58;;;;;;;3.45;3.15;;;3.40;99.90;;;;;;5047275;28;20319;-74
2024/02/02 05:30:26;;;;;;;3.50;2.35;;;3.40;99.90;;;;;;5049617;28;20212;-74
2024/02/02 05:32:53;;;;;;;4.05;2.80;;;3.40;99.90;;;;;;5048946;28;20296;-75
2024/02/02 05:35:19;;;;;;;2.85;2.58;;;3.50;99.90;;;;;;5041910;28;20225;-75
2024/02/02 05:37:46;;;;;;;2.88;2.35;;;3.50;99.90;;;;;;5050926;28;20728;-75
2024/02/02 05:40:13;;;;;;;3.30;2.60;;;3.60;99.90;;;;;;5057271;28;20572;-74
2024/02/02 05:42:41;;;;;;;4.72;2.67;;;3.60;99.90;;;;;;5051142;28;20205;-74
2024/02/02 05:45:08;;;;;;;4.10;2.42;;;3.70;99.90;;;;;;5067078;28;20208;-74
2024/02/02 05:47:37;;;;;;;3.67;2.85;;;3.80;99.90;;;;;;5058077;28;20223;-74
2024/02/02 05:50:04;;;;;;;3.15;2.72;;;3.90;99.90;;;;;;5048798;28;20205;-75
2024/02/02 05:52:30;;;;;;;3.20;2.50;;;3.90;99.90;;;;;;5049673;28;20216;-74
2024/02/02 05:54:57;;;;;;;4.00;2.92;;;4.00;99.90;;;;;;5050139;28;20217;-75
2024/02/02 05:57:24;;;;;;;4.95;3.42;;;4.00;99.90;;;;;;5049338;28;20202;-74
2024/02/02 05:59:51;;;;;;;3.08;2.60;;;4.10;99.90;;;;;;5049841;28;20201;-74
2024/02/02 06:02:18;;;;;;;3.05;2.40;;;4.10;99.90;;;;;;5049901;28;20213;-74
2024/02/02 06:04:46;;;;;;;5.68;3.10;;;4.10;99.90;;;;;;5047810;28;20637;-75
2024/02/02 06:07:13;;;;;;;4.70;3.40;;;4.10;99.90;;;;;;5049095;28;20241;-75
2024/02/02 06:09:40;;;;;;;5.72;3.90;;;4.10;99.90;;;;;;5050081;28;20722;-75
2024/02/02 06:12:07;;;;;;;4.28;3.40;;;4.20;99.90;;;;;;5048522;28;20681;-75
2024/02/02 06:14:33;;;;;;;4.22;2.47;;;4.20;99.90;;;;;;5049844;28;20228;-75
2024/02/02 06:17:00;;;;;;;2.95;2.47;;;4.20;99.90;;;;;;5049421;28;20205;-74
2024/02/02 06:19:27;;;;;;;4.95;3.22;;;4.30;99.90;;;;;;5050277;28;20263;-74
2024/02/02 06:21:55;;;;;;;4.90;2.97;;;4.30;99.90;;;;;;5049879;28;20585;-75
2024/02/02 06:24:24;;;;;;;3.97;2.85;;;4.30;99.90;;;;;;5043001;28;20197;-75
2024/02/02 06:26:51;;;;;;;3.42;3.13;;;4.30;99.90;;;;;;5058713;28;20213;-75
2024/02/02 06:29:18;;;;;;;4.55;2.97;;;4.30;99.90;;;;;;5049837;28;20229;-74
2024/02/02 06:31:44;;;;;;;3.53;2.90;;;4.30;99.90;;;;;;5050628;28;20205;-75
2024/02/02 06:34:11;;;;;;;4.07;3.60;;;4.30;99.90;;;;;;5050061;28;20221;-75
2024/02/02 06:36:38;;;;;;;4.32;2.80;;;4.40;99.90;;;;;;5050421;28;20228;-75
2024/02/02 06:39:06;;;;;;;4.80;3.38;;;4.40;99.90;;;;;;5040529;28;20226;-75
2024/02/02 06:41:33;;;;;;;5.47;3.22;;;4.40;99.90;;;;;;5030565;28;20670;-75
2024/02/02 06:44:00;;;;;;;5.30;4.07;;;4.40;99.90;;;;;;5031392;28;20281;-75
2024/02/02 06:46:26;;;;;;;3.90;3.28;;;4.50;99.90;;;;;;5037824;28;20209;-74
2024/02/02 06:48:53;;;;;;;3.13;2.60;;;4.50;99.90;;;;;;5030846;28;20240;-74
2024/02/02 06:51:20;;;;;;;3.42;2.88;;;4.50;99.90;;;;;;5030722;28;20224;-75
2024/02/02 06:53:49;;;;;;;6.95;3.75;;;4.50;99.90;;;;;;5032411;28;20221;-76
2024/02/02 06:56:37;;;;;;;4.82;3.03;;;4.50;99.90;;;;;;5035016;28;20300;-76
2024/02/02 06:59:05;;;;;;;4.28;3.65;;;4.50;99.90;;;;;;5043379;28;20221;-76
2024/02/02 07:01:32;;;;;;;4.75;3.33;;;4.60;99.90;;;;;;5043201;28;20224;-75
2024/02/02 07:03:59;;;;;;;3.80;2.70;;;4.60;99.90;;;;;;5035226;28;20228;-76
2024/02/02 07:06:25;;;;;;;3.22;2.90;;;4.60;99.90;;;;;;5034747;28;20198;-76
2024/02/02 07:08:53;;;;;;;3.72;2.67;;;4.70;99.90;;;;;;5035088;28;20585;-76
2024/02/02 07:11:47;;;;;;;2.80;2.60;;;4.60;99.90;;;;;;5035071;28;20216;-75
2024/02/02 07:14:42;;;;;;;3.97;3.15;;;4.70;99.90;;;;;;5034422;28;20221;-75
2024/02/02 07:17:21;;;;;;;3.30;2.58;;;4.70;99.90;;;;;;5034078;28;20217;-75
2024/02/02 07:19:48;;;;;;;8.75;3.60;;;4.90;99.90;;;;;;5044678;28;20216;-75
2024/02/02 07:22:32;;;;;;;6.20;3.45;;;4.90;99.90;;;;;;5042447;28;20216;-75
2024/02/02 07:24:58;;;;;;;3.88;2.92;;;4.90;99.90;;;;;;5043665;28;20588;-75
2024/02/02 07:27:47;;;;;;;4.72;3.28;;;5.00;99.90;;;;;;5034080;28;20209;-75
2024/02/02 07:30:39;;;;;;;4.63;3.30;;;5.00;99.90;;;;;;5035223;28;20210;-75
2024/02/02 07:33:18;;;;;;;4.15;2.53;;;5.10;99.90;;;;;;5035398;28;20202;-76
2024/02/02 07:35:44;;;;;;;7.88;3.25;;;5.10;99.90;;;;;;5034661;28;20218;-75
2024/02/02 07:38:42;;;;;;;4.55;4.00;;;5.10;99.90;;;;;;5035238;28;20225;-75
2024/02/02 07:41:10;;;;;;;5.45;3.38;;;5.10;99.90;;;;;;5028676;28;20205;-75
2024/02/02 07:43:37;;;;;;;4.22;3.20;;;5.10;99.90;;;;;;5035281;28;20698;-75
2024/02/02 07:46:06;;;;;;;4.80;3.08;;;5.10;99.90;;;;;;5035551;28;20206;-76
2024/02/02 07:48:34;;;;;;;4.03;3.10;;;5.00;99.90;;;;;;5040453;28;20226;-75
2024/02/02 07:51:01;;;;;;;4.72;4.07;;;5.00;99.90;;;;;;5044037;28;20206;-75
2024/02/02 07:53:28;;;;;;;5.80;2.97;;;5.10;99.90;;;;;;5041707;28;20710;-75
2024/02/02 07:55:55;;;;;;;6.60;4.38;;;5.10;99.90;;;;;;5034914;28;20701;-74
2024/02/02 07:58:22;;;;;;;4.55;3.40;;;5.10;99.90;;;;;;5044228;28;20711;-75
2024/02/02 08:00:50;;;;;;;3.80;3.40;;;5.20;99.90;;;;;;5043922;28;20210;-74
2024/02/02 08:03:19;;;;;;;3.88;3.47;;;5.20;99.90;;;;;;5035572;28;20214;-75
2024/02/02 08:05:47;;;;;;;4.50;3.53;;;5.30;99.90;;;;;;5034228;28;20624;-76
2024/02/02 08:08:14;;;;;;;6.15;3.25;;;5.30;99.90;;;;;;5035535;28;20727;-75
2024/02/02 08:10:43;;;;;;;5.28;3.53;;;5.30;99.90;;;;;;5035493;28;20217;-75
2024/02/02 08:13:11;;;;;;;2.47;2.28;;;5.40;99.90;;;;;;5035882;28;20206;-76
2024/02/02 08:15:38;;;;;;;5.00;3.17;;;5.50;99.90;;;;;;5035311;28;20225;-75
2024/02/02 08:18:07;;;;;;;4.90;3.53;;;5.40;99.90;;;;;;5036038;28;20225;-75
2024/02/02 08:20:35;;;;;;;5.93;3.10;;;5.50;99.90;;;;;;5035471;28;20212;-75
2024/02/02 08:23:02;;;;;;;3.42;2.78;;;5.50;99.90;;;;;;5035855;28;20206;-75
2024/02/02 08:25:29;;;;;;;5.15;3.08;;;5.50;99.90;;;;;;5034994;28;20206;-75
2024/02/02 08:27:56;;;;;;;3.70;3.13;;;5.60;99.90;;;;;;5035480;28;20714;-75
2024/02/02 08:30:24;;;;;;;4.70;3.08;;;5.60;99.90;;;;;;5035834;28;20210;-75
2024/02/02 08:32:52;;;;;;;4.60;2.83;;;5.70;99.90;;;;;;5035347;28;20256;-75
2024/02/02 08:35:20;;;;;;;3.33;2.47;;;5.70;99.90;;;;;;5038057;28;20247;-76
2024/02/02 08:37:50;;;;;;;3.58;2.75;;;5.70;99.90;;;;;;5039642;28;20663;-76
2024/02/02 08:40:26;;;;;;;3.33;2.60;;;5.80;99.90;;;;;;5036706;28;20205;-75
2024/02/02 08:42:53;;;;;;;3.38;2.67;;;5.80;99.90;;;;;;5035656;28;20209;-75
2024/02/02 08:45:56;;;;;;;3.40;2.70;;;5.90;99.90;;;;;;5038672;28;20193;-76
2024/02/02 08:48:33;;;;;;;4.60;2.65;;;6.00;99.90;;;;;;5035412;28;20618;-76
2024/02/02 08:51:00;;;;;;;2.70;2.45;;;6.10;99.90;;;;;;5036482;28;20628;-76
2024/02/02 08:53:30;;;;;;;3.10;2.80;;;6.20;99.90;;;;;;5036379;28;20591;-76
2024/02/02 08:56:00;;;;;;;3.05;2.72;;;6.20;99.90;;;;;;5042230;28;20308;-76
2024/02/02 08:58:31;;;;;;;3.38;2.55;;;6.30;99.90;;;;;;5036577;28;20296;-76
2024/02/02 09:00:59;;;;;;;4.20;3.10;;;6.30;99.90;;;;;;5035827;28;20219;-76
2024/02/02 09:03:28;;;;;;;4.45;2.70;;;6.30;99.90;;;;;;5036753;28;20217;-76
2024/02/02 09:05:57;;;;;;;3.60;2.75;;;6.40;99.90;;;;;;5035852;28;20205;-75
2024/02/02 09:08:33;;;;;;;3.58;2.35;;;6.40;99.90;;;;;;5043190;28;20267;-76
2024/02/02 09:11:26;;;;;;;2.88;2.25;;;6.50;99.90;;;;;;5036665;28;20202;-76
2024/02/02 09:14:08;;;;;;;3.88;2.92;;;6.60;99.90;;;;;;5050244;28;20206;-76
2024/02/02 09:16:42;;;;;;;4.38;2.35;;;6.70;99.90;;;;;;5035814;28;20824;-76
2024/02/02 09:19:25;;;;;;;3.40;2.60;;;6.80;99.90;;;;;;5037900;28;20219;-76
2024/02/02 09:21:51;;;;;;;4.65;3.35;;;6.80;99.90;;;;;;5048034;28;20293;-76
2024/02/02 09:24:38;;;;;;;3.65;2.20;;;6.80;99.90;;;;;;5038026;28;20253;-76
2024/02/02 09:27:07;;;;;;;6.20;2.70;;;6.80;99.90;;;;;;5037465;28;20552;-76
2024/02/02 09:29:35;;;;;;;4.95;2.90;;;6.80;99.90;;;;;;5035960;28;20222;-76
2024/02/02 09:32:02;;;;;;;2.50;2.03;;;6.80;99.90;;;;;;5036979;28;20210;-76
2024/02/02 09:34:32;;;;;;;6.68;3.20;;;6.80;99.90;;;;;;5036892;28;20207;-76
2024/02/02 09:36:59;;;;;;;3.97;2.97;;;6.80;99.90;;;;;;5036522;28;20215;-75
2024/02/02 09:39:53;;;;;;;2.60;2.40;;;6.90;99.90;;;;;;5037454;28;20228;-76
2024/02/02 09:42:55;;;;;;;3.70;3.17;;;6.80;99.90;;;;;;5036120;28;20199;-75
2024/02/02 09:45:40;;;;;;;5.38;2.90;;;6.80;99.90;;;;;;5035747;28;20199;-76
2024/02/02 09:48:15;;;;;;;3.47;2.63;;;6.80;99.90;;;;;;5037952;28;20226;-76
2024/02/02 09:50:50;;;;;;;3.17;2.55;;;6.90;99.90;;;;;;5046645;28;20205;-76
2024/02/02 09:54:01;;;;;;;3.53;2.58;;;6.90;99.90;;;;;;5052361;28;20212;-76
2024/02/02 09:56:41;;;;;;;2.60;2.40;;;7.00;99.90;;;;;;5036016;28;20679;-75
2024/02/02 09:59:13;;;;;;;3.38;2.63;;;7.00;99.90;;;;;;5037939;28;20233;-75
2024/02/02 10:01:54;;;;;;;4.30;2.70;;;6.90;99.90;;;;;;5036434;28;20218;-75
2024/02/02 10:04:36;;;;;;;3.42;2.20;;;6.90;99.90;;;;;;5041930;28;20670;-75
2024/02/02 10:07:14;;;;;;;6.05;3.10;;;6.90;99.90;;;;;;5037243;28;20201;-74
2024/02/02 10:10:03;;;;;;;3.33;2.50;;;6.90;99.90;;;;;;5036589;28;20234;-75
2024/02/02 10:12:44;;;;;;;3.78;2.30;;;6.90;99.90;;;;;;5036261;28;20214;-75
2024/02/02 10:15:31;;;;;;;4.18;2.53;;;7.00;99.90;;;;;;5038442;28;20596;-74
2024/02/02 10:18:16;;;;;;;3.22;2.40;;;7.20;99.90;;;;;;5048131;28;20223;-76
2024/02/02 10:20:48;;;;;;;3.33;2.60;;;7.30;99.90;;;;;;5036522;28;20580;-76
2024/02/02 10:23:54;;;;;;;3.50;2.22;;;7.30;99.90;;;;;;5039470;28;20211;-75
2024/02/02 10:26:45;;;;;;;2.30;2.10;;;7.40;99.90;;;;;;5034084;28;20225;-76
2024/02/02 10:29:23;;;;;;;6.50;3.20;;;7.40;99.90;;;;;;5034803;28;20234;-75
2024/02/02 10:32:18;;;;;;;3.00;2.50;;;7.40;99.90;;;;;;5042426;28;20293;-76
2024/02/02 10:34:59;;;;;;;2.47;2.05;;;7.50;99.90;;;;;;5036953;28;20209;-76
2024/02/02 10:37:34;;;;;;;2.97;2.20;;;8.00;99.90;;;;;;5036291;28;20209;-76
2024/02/02 10:40:23;;;;;;;3.08;2.15;;;9.00;99.90;;;;;;5037855;28;20204;-76
2024/02/02 10:43:06;;;;;;;8.10;3.20;;;10.10;99.90;;;;;;5036750;28;20212;-76
2024/02/02 10:45:41;;;;;;;3.80;2.35;;;11.10;99.90;;;;;;5036682;28;20224;-76
2024/02/02 10:48:38;;;;;;;5.57;2.38;;;12.30;99.90;;;;;;5037629;28;20235;-76
2024/02/02 10:51:12;;;;;;;2.47;2.15;;;12.90;99.90;;;;;;5042223;28;20568;-76
2024/02/02 10:53:51;;;;;;;3.78;2.20;;;12.50;99.90;;;;;;5041873;28;21461;-76
2024/02/02 10:56:26;;;;;;;1.80;1.50;;;12.80;99.90;;;;;;5039750;28;20227;-76
2024/02/02 10:59:04;;;;;;;2.25;1.75;;;13.70;99.90;;;;;;5052291;28;20226;-76
2024/02/02 11:01:38;;;;;;;2.53;2.00;;;15.80;99.90;;;;;;5036484;28;20236;-74
2024/02/02 11:04:15;;;;;;;2.23;2.00;;;17.30;99.90;;;;;;5038912;28;20460;-74
2024/02/02 11:06:47;;;;;;;1.73;1.60;;;18.30;99.90;;;;;;5039971;28;20470;-74
2024/02/02 11:09:19;;;;;;;1.60;1.50;;;18.60;99.90;;;;;;5045390;28;20480;-73
2024/02/02 11:11:49;;;;;;;1.97;1.77;;;19.70;99.90;;;;;;5049723;28;20464;-76
2024/02/02 11:14:27;;;;;;;7.33;2.07;;;20.30;99.90;;;;;;5040422;28;20459;-76
2024/02/02 11:17:03;;;;;;;2.40;2.00;;;20.50;98.70;;;;;;5048481;28;20487;-76
2024/02/02 11:19:47;;;;;;;2.33;2.00;;;20.00;98.90;;;;;;5037102;28;20483;-77
2024/02/02 11:22:23;;;;;;;1.63;1.53;;;20.40;98.20;;;;;;5039696;28;20456;-74
2024/02/02 11:25:00;;;;;;;4.17;1.40;;;20.10;96.50;;;;;;5037611;28;20463;-74
2024/02/02 11:27:34;;;;;;;2.07;1.30;;;19.60;97.80;;;;;;5036519;28;20462;-74
2024/02/02 11:30:05;;;;;;;1.90;1.40;;;20.40;97.40;;;;;;5038452;28;20466;-74
2024/02/02 11:32:58;;;;;;;1.87;1.53;;;20.70;96.70;;;;;;5043503;28;20464;-76
2024/02/02 11:35:32;;;;;;;1.77;1.67;;;20.40;95.70;;;;;;5041090;28;20664;-74
2024/02/02 11:38:11;;;;;;;1.63;1.53;;;19.70;95.90;;;;;;5042681;28;20485;-74
2024/02/02 11:40:39;;;;;;;3.20;1.60;;;19.40;95.60;;;;;;5039292;28;20462;-74
2024/02/02 11:43:09;;;;;;;2.00;1.80;;;19.90;95.70;;;;;;5043034;28;20456;-74
2024/02/02 11:45:40;;;;;;;2.07;1.83;;;19.70;95.20;;;;;;5041991;28;20530;-74
2024/02/02 11:48:16;;;;;;;2.13;1.60;;;19.50;94.90;;;;;;5042992;28;20488;-74
2024/02/02 11:50:45;;;;;;;1.73;1.23;;;19.70;95.60;;;;;;5048227;28;20459;-74
2024/02/02 11:53:23;;;;;;;2.63;1.67;;;20.10;95.10;;;;;;5044964;28;20460;-74
2024/02/02 11:55:54;;;;;;;2.73;1.50;;;20.10;94.50;;;;;;5056522;28;20486;-74
2024/02/02 11:58:23;;;;;;;1.70;1.43;;;20.00;93.30;;;;;;5040923;28;20475;-74
2024/02/02 12:01:11;;;;;;;1.57;1.40;;;19.50;93.90;;;;;;5043455;28;20460;-76
2024/02/02 12:03:53;;;;;;;1.50;1.40;;;19.00;93.90;;;;;;5041305;28;20538;-75
2024/02/02 12:06:21;;;;;;;1.70;1.40;;;18.40;95.00;;;;;;5040201;28;20474;-76
2024/02/02 12:08:58;;;;;;;1.93;1.27;;;17.90;95.40;;;;;;5042040;28;20993;-76
2024/02/02 12:11:31;;;;;;;1.70;1.20;;;17.60;95.90;;;;;;5040217;28;20475;-76
2024/02/02 12:14:01;;;;;;;2.00;1.30;;;17.10;95.60;;;;;;5044773;28;20946;-75
2024/02/02 12:16:27;;;;;;;1.33;1.23;;;16.40;95.50;;;;;;5056391;28;20487;-75
2024/02/02 12:18:55;;;;;;;1.60;1.50;;;16.30;96.20;;;;;;5050455;28;20488;-76
2024/02/02 12:21:23;;;;;;;1.37;1.27;;;16.10;96.70;;;;;;5050504;28;20898;-76
2024/02/02 12:23:50;;;;;;;1.17;1.03;;;15.90;95.60;;;;;;5051068;28;20475;-76
2024/02/02 12:26:17;;;;;;;2.03;1.10;;;15.70;96.30;;;;;;5052274;28;20456;-76
2024/02/02 12:28:43;;;;;;;1.40;1.30;;;15.40;96.10;;;;;;5042725;28;20487;-76
2024/02/02 12:31:10;;;;;;;1.30;1.03;;;15.50;96.30;;;;;;5043333;28;20843;-76
2024/02/02 12:33:37;;;;;;;1.43;1.33;;;15.60;96.30;;;;;;5044109;28;20460;-76
2024/02/02 12:36:05;;;;;;;2.83;1.20;;;15.30;97.00;;;;;;5042006;28;20488;-76
2024/02/02 12:38:32;;;;;;;4.40;1.20;;;14.90;96.40;;;;;;5044572;28;20486;-75
2024/02/02 12:40:59;;;;;;;1.67;1.27;;;14.80;96.80;;;;;;5041871;28;20817;-76
2024/02/02 12:43:25;;;;;;;1.40;1.30;;;14.90;96.80;;;;;;5045489;28;20478;-76
2024/02/02 12:45:53;;;;;;;2.97;1.30;;;14.90;96.80;;;;;;5041602;28;20467;-76
2024/02/02 12:48:20;;;;;;;1.80;1.50;;;14.80;96.30;;;;;;5045521;28;20500;-75
2024/02/02 12:50:49;;;;;;;1.20;1.10;;;14.60;96.50;;;;;;5042185;28;20471;-76
2024/02/02 12:53:17;;;;;;;1.30;1.10;;;14.50;96.70;;;;;;5044679;28;20882;-76
2024/02/02 12:55:45;;;;;;;1.23;1.10;;;14.50;96.30;;;;;;5042441;28;20477;-76
2024/02/02 12:58:12;;;;;;;1.10;1.00;;;14.00;97.60;;;;;;5044271;28;20494;-75
2024/02/02 13:00:39;;;;;;;1.50;1.40;;;14.00;97.70;;;;;;5043418;28;20674;-75
2024/02/02 13:03:06;;;;;;;2.70;1.27;;;14.20;97.60;;;;;;5043607;28;20986;-76
2024/02/02 13:05:33;;;;;;;1.97;1.30;;;14.30;97.40;;;;;;5044470;28;20553;-76
2024/02/02 13:08:02;;;;;;;1.40;1.30;;;14.50;97.40;;;;;;5042663;28;20994;-76
2024/02/02 13:10:37;;;;;;;1.60;1.50;;;14.70;96.90;;;;;;5045078;28;20463;-75
2024/02/02 13:13:11;;;;;;;1.57;0.97;;;14.80;97.50;;;;;;5053780;28;20467;-75